Time;durP1;ratioP1;P1;durP2;ratioP2;P2;SDS_P1;SDS_P2;PMS_P1;PMS_P2;Temp;Humidity;BMP_temperature;BMP_pressure;BME280_temperature;BME280_humidity;BME280_pressure;Samples;Min_cycle;Max_cycle;Signal;HPM_P1;HPM_P2
2021/10/24 00:00:19;;;;;;;7.57;3.50;;;6.50;99.90;;;;;;5054701;28;20128;-87
2021/10/24 00:02:46;;;;;;;8.80;3.63;;;6.00;99.90;;;;;;5054672;28;20094;-86
2021/10/24 00:05:12;;;;;;;9.25;3.40;;;6.30;99.90;;;;;;5054541;28;20021;-86
2021/10/24 00:07:38;;;;;;;6.50;3.47;;;6.50;99.90;;;;;;5054852;28;20040;-87
2021/10/24 00:10:05;;;;;;;8.30;3.13;;;6.60;99.90;;;;;;5054464;28;20037;-86
2021/10/24 00:12:30;;;;;;;10.93;4.10;;;6.30;99.90;;;;;;5054434;28;20021;-86
2021/10/24 00:14:56;;;;;;;4.88;3.30;;;6.60;99.90;;;;;;5055809;28;20056;-86
2021/10/24 00:17:22;;;;;;;9.52;3.65;;;6.20;99.90;;;;;;5055878;28;20021;-87
2021/10/24 00:19:47;;;;;;;5.28;3.72;;;5.90;99.90;;;;;;5054355;28;20021;-87
2021/10/24 00:22:14;;;;;;;6.97;3.67;;;5.90;99.90;;;;;;5054340;28;20032;-86
2021/10/24 00:24:39;;;;;;;5.35;3.38;;;6.30;99.90;;;;;;5054298;28;20029;-86
2021/10/24 00:27:05;;;;;;;6.53;3.33;;;6.30;99.90;;;;;;5054238;28;20116;-87
2021/10/24 00:29:31;;;;;;;8.63;3.58;;;6.60;99.90;;;;;;5055106;28;20040;-86
2021/10/24 00:31:57;;;;;;;8.30;4.10;;;6.30;99.90;;;;;;5054389;28;20074;-87
2021/10/24 00:34:22;;;;;;;7.25;3.28;;;6.00;99.90;;;;;;5054174;28;20021;-87
2021/10/24 00:36:48;;;;;;;8.82;4.20;;;5.80;99.90;;;;;;5054027;28;20024;-86
2021/10/24 00:39:14;;;;;;;7.93;3.33;;;6.10;99.90;;;;;;5054273;28;20422;-86
2021/10/24 00:41:40;;;;;;;6.38;3.40;;;6.10;99.90;;;;;;5053438;28;20107;-86
2021/10/24 00:44:29;;;;;;;6.32;3.08;;;6.30;99.90;;;;;;5053936;28;20377;-86
2021/10/24 00:46:57;;;;;;;7.15;3.65;;;6.50;99.90;;;;;;5051187;28;20126;-86
2021/10/24 00:49:24;;;;;;;5.60;3.45;;;7.00;99.90;;;;;;5055269;28;20100;-86
2021/10/24 00:51:51;;;;;;;7.32;4.43;;;6.70;99.90;;;;;;5053792;28;20032;-86
2021/10/24 00:54:23;;;;;;;7.97;3.70;;;6.40;99.90;;;;;;5053793;28;20070;-87
2021/10/24 00:56:51;;;;;;;5.57;3.50;;;6.60;99.90;;;;;;5053566;28;20507;-87
2021/10/24 00:59:17;;;;;;;5.40;3.10;;;7.00;99.90;;;;;;5053645;28;20045;-86
2021/10/24 01:01:44;;;;;;;9.57;3.63;;;6.90;99.90;;;;;;5053568;28;20029;-86
2021/10/24 01:04:10;;;;;;;5.93;3.15;;;6.50;99.90;;;;;;5054798;28;20025;-86
2021/10/24 01:06:38;;;;;;;10.35;3.50;;;6.60;99.90;;;;;;5053487;28;20029;-86
2021/10/24 01:09:07;;;;;;;6.88;3.40;;;6.70;99.90;;;;;;5053444;28;20033;-86
2021/10/24 01:11:33;;;;;;;7.82;3.15;;;6.60;99.90;;;;;;5053317;28;20115;-86
2021/10/24 01:13:59;;;;;;;7.78;3.22;;;6.10;99.90;;;;;;5053303;28;20067;-86
2021/10/24 01:16:26;;;;;;;8.57;3.42;;;6.20;99.90;;;;;;5054602;28;20025;-86
2021/10/24 01:18:52;;;;;;;5.90;3.53;;;5.90;99.90;;;;;;5053292;28;20092;-87
2021/10/24 01:21:19;;;;;;;7.32;3.00;;;5.80;99.90;;;;;;5053109;28;20032;-86
2021/10/24 01:23:45;;;;;;;5.72;2.85;;;5.50;99.90;;;;;;5053121;28;20021;-87
2021/10/24 01:26:12;;;;;;;6.72;3.10;;;5.80;99.90;;;;;;5053119;28;20029;-86
2021/10/24 01:28:38;;;;;;;6.63;3.17;;;6.30;99.90;;;;;;5053162;28;20108;-86
2021/10/24 01:31:04;;;;;;;7.78;3.30;;;6.10;99.90;;;;;;5054229;28;20430;-86
2021/10/24 01:33:31;;;;;;;6.70;3.15;;;5.90;99.90;;;;;;5053044;28;20025;-86
2021/10/24 01:36:01;;;;;;;7.80;3.05;;;5.70;99.90;;;;;;5053776;28;20464;-87
2021/10/24 01:38:28;;;;;;;7.40;3.25;;;5.90;99.90;;;;;;5053438;28;20021;-86
2021/10/24 01:40:56;;;;;;;7.07;3.50;;;6.30;99.90;;;;;;5052864;28;20028;-86
2021/10/24 01:43:23;;;;;;;5.95;3.03;;;6.10;99.90;;;;;;5052934;28;20032;-86
2021/10/24 01:45:49;;;;;;;5.68;2.95;;;6.10;99.90;;;;;;5052837;28;20035;-86
2021/10/24 01:48:16;;;;;;;6.15;3.10;;;6.40;99.90;;;;;;5052782;28;20095;-86
2021/10/24 01:50:43;;;;;;;6.30;3.10;;;6.30;99.90;;;;;;5052632;28;20028;-86
2021/10/24 01:53:09;;;;;;;6.32;2.58;;;6.00;99.90;;;;;;5051969;28;20436;-86
2021/10/24 01:55:35;;;;;;;7.18;3.05;;;6.00;99.90;;;;;;5052578;28;20021;-87
2021/10/24 01:58:01;;;;;;;7.05;3.20;;;6.10;99.90;;;;;;5052474;28;20495;-87
2021/10/24 02:00:27;;;;;;;4.78;2.53;;;5.80;99.90;;;;;;5052286;28;20111;-86
2021/10/24 02:02:53;;;;;;;6.00;3.22;;;5.90;99.90;;;;;;5052468;28;20108;-86
2021/10/24 02:05:20;;;;;;;5.25;3.00;;;5.80;99.90;;;;;;5052777;28;20058;-86
2021/10/24 02:07:45;;;;;;;6.32;3.00;;;5.80;99.90;;;;;;5052555;28;20025;-86
2021/10/24 02:10:14;;;;;;;7.47;2.97;;;6.00;99.90;;;;;;5052317;28;20033;-87
2021/10/24 02:12:41;;;;;;;5.30;2.72;;;6.40;99.90;;;;;;5052403;28;20051;-87
2021/10/24 02:15:09;;;;;;;7.10;3.15;;;6.60;99.90;;;;;;5052228;28;20078;-87
2021/10/24 02:17:34;;;;;;;6.20;2.63;;;6.20;99.90;;;;;;5052243;28;20029;-86
2021/10/24 02:20:01;;;;;;;7.95;2.97;;;6.10;99.90;;;;;;5052123;28;20025;-86
2021/10/24 02:22:27;;;;;;;4.95;2.70;;;6.10;99.90;;;;;;5052098;28;20373;-87
2021/10/24 02:24:53;;;;;;;8.05;3.17;;;6.00;99.90;;;;;;5052017;28;20025;-87
2021/10/24 02:27:19;;;;;;;6.72;2.80;;;6.00;99.90;;;;;;5052031;28;20021;-87
2021/10/24 02:29:46;;;;;;;6.85;3.00;;;6.10;99.90;;;;;;5051925;28;20406;-86
2021/10/24 02:32:12;;;;;;;7.10;2.88;;;6.00;99.90;;;;;;5053222;28;20031;-86
2021/10/24 02:34:38;;;;;;;7.60;2.70;;;6.00;99.90;;;;;;5051956;28;20112;-86
2021/10/24 02:37:04;;;;;;;7.78;2.95;;;6.40;99.90;;;;;;5051959;28;20483;-87
2021/10/24 02:39:30;;;;;;;4.50;2.45;;;6.00;99.90;;;;;;5052054;28;20056;-86
2021/10/24 02:41:56;;;;;;;10.57;2.95;;;5.90;99.90;;;;;;5051869;28;20029;-86
2021/10/24 02:44:22;;;;;;;5.82;2.92;;;5.50;99.90;;;;;;5051819;28;20087;-86
2021/10/24 02:46:52;;;;;;;9.82;2.97;;;5.90;99.90;;;;;;5051725;28;20115;-86
2021/10/24 02:49:18;;;;;;;7.18;2.88;;;6.00;99.90;;;;;;5051947;28;20017;-86
2021/10/24 02:51:45;;;;;;;6.28;3.17;;;5.70;99.90;;;;;;5051683;28;20036;-86
2021/10/24 02:54:10;;;;;;;4.43;2.60;;;5.70;99.90;;;;;;5051666;28;20111;-86
2021/10/24 02:56:36;;;;;;;6.07;3.20;;;5.30;99.90;;;;;;5051602;28;20053;-87
2021/10/24 02:59:03;;;;;;;6.13;3.17;;;5.40;99.90;;;;;;5051495;28;20413;-86
2021/10/24 03:01:29;;;;;;;4.75;3.00;;;5.40;99.90;;;;;;5051671;28;20021;-86
2021/10/24 03:03:54;;;;;;;8.60;2.53;;;5.30;99.90;;;;;;5051638;28;20031;-86
2021/10/24 03:06:20;;;;;;;3.70;2.45;;;5.70;99.90;;;;;;5055179;28;20040;-86
2021/10/24 03:08:46;;;;;;;4.90;2.13;;;5.90;99.90;;;;;;5055760;28;20393;-86
2021/10/24 03:11:11;;;;;;;6.53;2.97;;;6.10;99.90;;;;;;5055592;28;20131;-86
2021/10/24 03:13:37;;;;;;;7.20;3.00;;;5.90;99.90;;;;;;5055725;28;20108;-87
2021/10/24 03:16:03;;;;;;;5.63;2.90;;;6.00;99.90;;;;;;5055511;28;20036;-86
2021/10/24 03:18:29;;;;;;;4.38;2.30;;;6.10;99.90;;;;;;5055550;28;20021;-86
2021/10/24 03:20:55;;;;;;;7.10;3.17;;;6.20;99.90;;;;;;5055504;28;20021;-87
2021/10/24 03:23:21;;;;;;;7.88;3.38;;;5.80;99.90;;;;;;5055632;28;20033;-86
2021/10/24 03:25:48;;;;;;;4.53;2.60;;;5.80;99.90;;;;;;5056697;28;20056;-86
2021/10/24 03:28:14;;;;;;;9.90;3.15;;;5.70;99.90;;;;;;5056640;28;20028;-87
2021/10/24 03:30:40;;;;;;;5.45;3.08;;;5.60;99.90;;;;;;5055242;28;20439;-87
2021/10/24 03:33:06;;;;;;;9.80;3.35;;;5.40;99.90;;;;;;5055289;28;20017;-85
2021/10/24 03:35:32;;;;;;;8.48;3.10;;;5.20;99.90;;;;;;5056574;28;20053;-86
2021/10/24 03:37:58;;;;;;;8.38;3.65;;;5.20;99.90;;;;;;5055738;28;20442;-86
2021/10/24 03:40:24;;;;;;;4.82;2.80;;;5.20;99.90;;;;;;5056610;28;20032;-86
2021/10/24 03:42:49;;;;;;;4.50;2.45;;;5.40;99.90;;;;;;5056400;28;20439;-86
2021/10/24 03:45:15;;;;;;;7.13;2.72;;;6.00;99.90;;;;;;5056316;28;20452;-86
2021/10/24 03:47:41;;;;;;;5.75;3.00;;;6.00;99.90;;;;;;5055100;28;20033;-86
2021/10/24 03:50:07;;;;;;;4.05;2.90;;;5.90;99.90;;;;;;5055152;28;20082;-86
2021/10/24 03:52:33;;;;;;;7.70;3.67;;;5.90;99.90;;;;;;5055024;28;20021;-86
2021/10/24 03:54:59;;;;;;;9.48;3.80;;;5.70;99.90;;;;;;5056229;28;20430;-86
2021/10/24 03:57:24;;;;;;;8.18;3.80;;;5.60;99.90;;;;;;5054679;28;20028;-86
2021/10/24 03:59:50;;;;;;;7.20;3.22;;;5.50;99.90;;;;;;5054607;28;20048;-86
2021/10/24 04:02:16;;;;;;;7.45;3.17;;;5.40;99.90;;;;;;5055081;28;20035;-86
2021/10/24 04:04:44;;;;;;;4.78;2.60;;;5.40;99.90;;;;;;5054708;28;20024;-86
2021/10/24 04:07:11;;;;;;;4.22;2.90;;;5.90;99.90;;;;;;5054696;28;20021;-86
2021/10/24 04:09:37;;;;;;;4.63;2.67;;;5.70;99.90;;;;;;5054544;28;20168;-85
2021/10/24 04:12:03;;;;;;;6.45;2.95;;;6.10;99.90;;;;;;5055791;28;20475;-86
2021/10/24 04:14:29;;;;;;;4.80;2.60;;;6.30;99.90;;;;;;5054654;28;20056;-86
2021/10/24 04:16:54;;;;;;;5.40;2.80;;;6.30;99.90;;;;;;5054294;28;20021;-86
2021/10/24 04:19:20;;;;;;;5.22;2.55;;;6.20;99.90;;;;;;5054675;28;20108;-87
2021/10/24 04:21:46;;;;;;;6.15;2.90;;;5.70;99.90;;;;;;5054913;28;20052;-86
2021/10/24 04:24:12;;;;;;;7.85;2.65;;;5.80;99.90;;;;;;5054648;28;20036;-87
2021/10/24 04:26:38;;;;;;;6.93;2.88;;;5.10;99.90;;;;;;5054591;28;20028;-86
2021/10/24 04:29:04;;;;;;;7.20;3.25;;;5.20;99.90;;;;;;5054357;28;20035;-86
2021/10/24 04:31:30;;;;;;;5.90;2.80;;;4.90;99.90;;;;;;5054225;28;20075;-87
2021/10/24 04:33:56;;;;;;;5.93;2.70;;;4.90;99.90;;;;;;5054289;28;20029;-85
2021/10/24 04:36:22;;;;;;;7.22;3.13;;;5.00;99.90;;;;;;5054181;28;20029;-86
2021/10/24 04:38:48;;;;;;;7.65;2.97;;;5.00;99.90;;;;;;5054241;28;20024;-86
2021/10/24 04:41:15;;;;;;;6.40;2.97;;;5.20;99.90;;;;;;5055264;28;20021;-86
2021/10/24 04:43:41;;;;;;;6.60;3.03;;;5.40;99.90;;;;;;5054051;28;20369;-86
2021/10/24 04:46:07;;;;;;;5.43;2.65;;;5.30;99.90;;;;;;5053894;28;20029;-86
2021/10/24 04:48:33;;;;;;;6.22;2.80;;;5.60;99.90;;;;;;5053848;28;20459;-86
2021/10/24 04:50:59;;;;;;;5.07;2.70;;;5.50;99.90;;;;;;5053757;28;20025;-86
2021/10/24 04:53:25;;;;;;;5.10;2.78;;;5.30;99.90;;;;;;5053774;28;20086;-85
2021/10/24 04:55:51;;;;;;;5.03;2.50;;;4.90;99.90;;;;;;5053658;28;20028;-86
2021/10/24 04:58:17;;;;;;;6.70;2.50;;;5.10;99.90;;;;;;5053705;28;20028;-86
2021/10/24 05:00:43;;;;;;;8.30;2.97;;;5.20;99.90;;;;;;5053486;28;20041;-86
2021/10/24 05:03:09;;;;;;;8.35;3.10;;;5.10;99.90;;;;;;5053634;28;20032;-86
2021/10/24 05:05:34;;;;;;;4.70;2.80;;;5.40;99.90;;;;;;5053560;28;20029;-85
2021/10/24 05:08:00;;;;;;;6.13;3.05;;;5.80;99.90;;;;;;5053512;28;20366;-86
2021/10/24 05:10:26;;;;;;;5.90;2.75;;;5.80;99.90;;;;;;5053419;28;20128;-85
2021/10/24 05:12:52;;;;;;;7.05;2.88;;;5.90;99.90;;;;;;5053468;28;20175;-85
2021/10/24 05:15:19;;;;;;;6.53;2.42;;;5.30;99.90;;;;;;5053357;28;20477;-85
2021/10/24 05:17:45;;;;;;;6.97;2.83;;;5.20;99.90;;;;;;5054643;28;20465;-85
2021/10/24 05:20:18;;;;;;;4.75;2.40;;;5.30;99.90;;;;;;5053362;28;20039;-84
2021/10/24 05:22:43;;;;;;;8.73;2.95;;;5.50;99.90;;;;;;5038198;28;20029;-85
2021/10/24 05:25:09;;;;;;;5.47;3.22;;;5.30;99.90;;;;;;5053318;28;20028;-85
2021/10/24 05:27:35;;;;;;;5.80;2.80;;;5.40;99.90;;;;;;5053094;28;20051;-85
2021/10/24 05:30:01;;;;;;;4.95;2.92;;;5.00;99.90;;;;;;5053024;28;20029;-85
2021/10/24 05:32:27;;;;;;;5.85;2.80;;;5.10;99.90;;;;;;5054357;28;20033;-85
2021/10/24 05:34:53;;;;;;;4.55;2.75;;;5.30;99.90;;;;;;5053370;28;20021;-85
2021/10/24 05:37:18;;;;;;;7.18;2.72;;;5.10;99.90;;;;;;5054216;28;20033;-85
2021/10/24 05:39:44;;;;;;;5.13;2.88;;;5.00;99.90;;;;;;5052861;28;20078;-85
2021/10/24 05:42:10;;;;;;;11.90;3.38;;;5.20;99.90;;;;;;5054668;28;20017;-85
2021/10/24 05:44:36;;;;;;;8.70;4.07;;;5.10;99.90;;;;;;5052876;28;20090;-85
2021/10/24 05:47:02;;;;;;;7.38;3.53;;;5.60;99.90;;;;;;5052879;28;20029;-85
2021/10/24 05:49:28;;;;;;;6.53;3.10;;;5.00;99.90;;;;;;5052924;28;20017;-85
2021/10/24 05:51:53;;;;;;;5.00;3.10;;;5.40;99.90;;;;;;5052671;28;20158;-84
2021/10/24 05:54:19;;;;;;;7.25;3.00;;;5.50;99.90;;;;;;5052566;28;20021;-85
2021/10/24 05:56:45;;;;;;;3.40;2.60;;;5.40;99.90;;;;;;5052433;28;20021;-85
2021/10/24 05:59:11;;;;;;;7.65;3.30;;;5.60;99.90;;;;;;5052315;28;20043;-84
2021/10/24 06:01:37;;;;;;;8.05;3.25;;;5.50;99.90;;;;;;5052538;28;20059;-85
2021/10/24 06:04:03;;;;;;;6.30;3.00;;;5.20;99.90;;;;;;5052444;28;20056;-85
2021/10/24 06:06:28;;;;;;;5.75;3.10;;;5.20;99.90;;;;;;5052502;28;20120;-85
2021/10/24 06:08:54;;;;;;;7.43;3.08;;;4.80;99.90;;;;;;5052344;28;20025;-86
2021/10/24 06:14:12;;;;;;;5.47;3.20;;;4.90;99.90;;;;;;5045301;28;20071;-85
2021/10/24 06:16:38;;;;;;;7.47;3.40;;;5.20;99.90;;;;;;5053543;28;20021;-85
2021/10/24 06:19:04;;;;;;;4.38;2.42;;;4.90;99.90;;;;;;5053486;28;20417;-85
2021/10/24 06:21:30;;;;;;;5.30;2.92;;;5.10;99.90;;;;;;5052032;28;20053;-85
2021/10/24 06:23:56;;;;;;;4.68;2.90;;;5.40;99.90;;;;;;5052244;28;20040;-85
2021/10/24 06:26:21;;;;;;;4.82;3.10;;;5.60;99.90;;;;;;5052315;28;20032;-85
2021/10/24 06:28:47;;;;;;;5.28;2.78;;;5.80;99.90;;;;;;5052267;28;20082;-85
2021/10/24 06:31:13;;;;;;;7.63;3.40;;;5.90;99.90;;;;;;5052608;28;20028;-84
2021/10/24 06:33:40;;;;;;;5.22;3.15;;;5.80;99.90;;;;;;5052459;28;20112;-85
2021/10/24 06:36:05;;;;;;;7.90;3.10;;;5.90;99.90;;;;;;5053663;28;20021;-84
2021/10/24 06:38:32;;;;;;;6.25;2.90;;;5.60;99.90;;;;;;5054301;28;20354;-85
2021/10/24 06:40:58;;;;;;;7.55;3.58;;;5.80;99.90;;;;;;5051941;28;20037;-85
2021/10/24 06:43:24;;;;;;;5.63;3.50;;;5.80;99.90;;;;;;5052817;28;20052;-86
2021/10/24 06:45:50;;;;;;;7.13;4.00;;;6.10;99.90;;;;;;5053559;28;20029;-86
2021/10/24 06:48:16;;;;;;;8.75;4.05;;;5.90;99.90;;;;;;5053836;28;20544;-85
2021/10/24 06:50:42;;;;;;;8.38;3.92;;;5.90;99.90;;;;;;5053403;28;20104;-85
2021/10/24 06:53:07;;;;;;;9.23;3.90;;;6.00;99.90;;;;;;5051841;28;20017;-85
2021/10/24 06:55:34;;;;;;;6.40;3.33;;;6.30;99.90;;;;;;5052831;28;20044;-85
2021/10/24 06:57:59;;;;;;;6.18;3.75;;;6.30;99.90;;;;;;5051867;28;20492;-85
2021/10/24 07:00:26;;;;;;;6.00;3.75;;;6.40;99.90;;;;;;5068562;28;20079;-86
2021/10/24 07:02:52;;;;;;;10.55;4.10;;;6.30;99.90;;;;;;5055001;28;20043;-85
2021/10/24 07:05:19;;;;;;;6.60;3.88;;;6.30;99.90;;;;;;5054955;28;20423;-85
2021/10/24 07:07:45;;;;;;;6.97;3.28;;;6.30;99.90;;;;;;5072936;28;20021;-86
2021/10/24 07:10:12;;;;;;;7.88;3.42;;;6.30;99.90;;;;;;5054811;28;20078;-86
2021/10/24 07:12:39;;;;;;;6.55;3.50;;;6.10;99.90;;;;;;5054953;28;20029;-86
2021/10/24 07:15:06;;;;;;;6.75;2.85;;;6.20;99.90;;;;;;5054939;28;20510;-85
2021/10/24 07:17:32;;;;;;;7.32;3.40;;;6.60;99.90;;;;;;5054745;28;20032;-86
2021/10/24 07:19:58;;;;;;;5.82;3.40;;;6.70;99.90;;;;;;5054861;28;20392;-86
2021/10/24 07:22:24;;;;;;;6.43;3.53;;;6.50;99.90;;;;;;5054757;28;20021;-86
2021/10/24 07:24:49;;;;;;;8.27;3.80;;;6.40;99.90;;;;;;5054709;28;20482;-86
2021/10/24 07:27:16;;;;;;;10.80;3.35;;;6.30;99.90;;;;;;5054570;28;20031;-86
2021/10/24 07:29:43;;;;;;;9.68;4.35;;;6.70;99.90;;;;;;5054669;28;20028;-86
2021/10/24 07:32:09;;;;;;;10.75;5.15;;;6.50;99.90;;;;;;5054657;28;20020;-86
2021/10/24 07:34:35;;;;;;;11.15;6.10;;;6.20;99.90;;;;;;5072877;28;20017;-86
2021/10/24 07:37:01;;;;;;;8.98;5.78;;;6.50;99.90;;;;;;5054866;28;20495;-86
2021/10/24 07:39:27;;;;;;;9.90;7.05;;;6.60;99.90;;;;;;5054638;28;20020;-86
2021/10/24 07:41:53;;;;;;;16.65;9.30;;;7.20;99.90;;;;;;5054591;28;20124;-86
2021/10/24 07:44:19;;;;;;;12.43;5.10;;;7.10;99.90;;;;;;5054535;28;20051;-86
2021/10/24 07:46:46;;;;;;;7.10;3.90;;;7.20;99.90;;;;;;5072830;28;20028;-86
2021/10/24 07:49:12;;;;;;;5.45;3.67;;;7.30;99.90;;;;;;5054555;28;20490;-86
2021/10/24 07:51:39;;;;;;;7.18;4.40;;;7.60;99.90;;;;;;5054997;28;20028;-86
2021/10/24 07:54:05;;;;;;;5.97;3.67;;;7.80;99.90;;;;;;5076137;28;20025;-86
2021/10/24 07:56:38;;;;;;;6.40;3.13;;;7.70;99.90;;;;;;5058186;28;20024;-86
2021/10/24 07:59:04;;;;;;;5.95;3.63;;;8.30;99.90;;;;;;5058053;28;20051;-86
2021/10/24 08:01:41;;;;;;;7.80;4.18;;;8.50;99.90;;;;;;5058287;28;20028;-86
2021/10/24 08:04:07;;;;;;;6.93;3.90;;;8.50;99.90;;;;;;5058346;28;20032;-86
2021/10/24 08:06:37;;;;;;;6.88;4.15;;;8.60;99.90;;;;;;5057765;28;20036;-86
2021/10/24 08:09:07;;;;;;;9.00;4.50;;;8.60;99.90;;;;;;5057897;28;20037;-86
2021/10/24 08:11:39;;;;;;;8.93;4.75;;;8.60;99.90;;;;;;5058526;28;20029;-86
2021/10/24 08:14:07;;;;;;;8.85;4.38;;;8.50;99.90;;;;;;5058735;28;20020;-86
2021/10/24 08:16:37;;;;;;;8.35;4.53;;;8.90;99.90;;;;;;5058788;28;20050;-86
2021/10/24 08:19:03;;;;;;;12.80;5.57;;;8.90;99.90;;;;;;5058616;28;20056;-86
2021/10/24 08:21:30;;;;;;;9.32;5.57;;;9.10;99.90;;;;;;5059089;28;20475;-87
2021/10/24 08:23:55;;;;;;;10.60;4.68;;;9.30;99.90;;;;;;5058557;28;20484;-87
2021/10/24 08:26:23;;;;;;;10.73;5.45;;;9.60;99.90;;;;;;5076571;28;20079;-85
2021/10/24 08:28:49;;;;;;;10.57;5.90;;;9.70;99.90;;;;;;5058853;28;20025;-87
2021/10/24 08:31:18;;;;;;;8.45;4.15;;;9.70;99.90;;;;;;5058786;28;20028;-87
2021/10/24 08:33:44;;;;;;;8.88;4.72;;;9.90;99.90;;;;;;5062337;28;20032;-88
2021/10/24 08:36:10;;;;;;;9.63;4.82;;;10.50;99.90;;;;;;5080959;28;20020;-87
2021/10/24 08:38:36;;;;;;;12.60;5.18;;;10.70;99.90;;;;;;5059523;28;20036;-85
2021/10/24 08:41:03;;;;;;;13.35;5.20;;;10.80;99.90;;;;;;5058092;28;20125;-87
2021/10/24 08:43:32;;;;;;;7.65;4.75;;;10.40;99.90;;;;;;5075775;28;20052;-87
2021/10/24 08:46:01;;;;;;;8.27;4.00;;;10.40;99.90;;;;;;5057535;28;20032;-87
2021/10/24 08:48:27;;;;;;;8.77;4.57;;;10.60;99.90;;;;;;5057211;28;20036;-87
2021/10/24 08:50:53;;;;;;;9.85;4.60;;;10.50;99.90;;;;;;5056794;28;20035;-87
2021/10/24 08:53:26;;;;;;;9.77;4.70;;;10.70;99.90;;;;;;5057243;28;20020;-88
2021/10/24 08:55:55;;;;;;;9.95;4.75;;;10.50;99.90;;;;;;5058248;28;20670;-87
2021/10/24 08:58:21;;;;;;;7.03;4.15;;;10.50;99.90;;;;;;5057157;28;20021;-87
2021/10/24 09:00:52;;;;;;;10.85;4.93;;;10.50;99.90;;;;;;5056901;28;20170;-88
2021/10/24 09:03:18;;;;;;;11.82;4.20;;;10.90;99.90;;;;;;5075104;28;20579;-88
2021/10/24 09:05:49;;;;;;;8.10;3.80;;;11.00;99.90;;;;;;5057184;28;20064;-87
2021/10/24 09:08:23;;;;;;;10.75;4.22;;;11.00;99.90;;;;;;5056999;28;20057;-88
2021/10/24 09:10:55;;;;;;;7.32;3.90;;;11.10;99.90;;;;;;5056964;28;20054;-88
2021/10/24 09:13:22;;;;;;;6.53;3.75;;;11.00;99.90;;;;;;5056738;28;20419;-87
2021/10/24 09:15:56;;;;;;;10.10;5.65;;;10.80;99.90;;;;;;5056820;28;20051;-88
2021/10/24 09:18:30;;;;;;;9.25;4.15;;;11.20;99.90;;;;;;5033163;28;20038;-87
2021/10/24 09:20:56;;;;;;;7.75;3.92;;;11.80;99.90;;;;;;5018013;28;20490;-86
2021/10/24 09:23:22;;;;;;;34.45;16.02;;;11.80;99.90;;;;;;5017020;28;20030;-88
2021/10/24 09:25:51;;;;;;;10.10;4.25;;;12.00;99.90;;;;;;5034043;28;20501;-85
2021/10/24 09:28:21;;;;;;;8.63;4.57;;;12.50;99.90;;;;;;5017781;28;20155;-86
2021/10/24 09:30:58;;;;;;;12.43;3.90;;;12.60;99.90;;;;;;5017431;28;20401;-86
2021/10/24 09:33:25;;;;;;;11.57;4.72;;;12.90;99.90;;;;;;5017729;28;20060;-86
2021/10/24 09:35:51;;;;;;;9.07;4.68;;;13.10;99.90;;;;;;5017981;28;20481;-86
2021/10/24 09:38:24;;;;;;;7.65;3.80;;;13.10;99.90;;;;;;5017746;28;20022;-86
2021/10/24 09:40:56;;;;;;;6.30;3.85;;;13.30;99.90;;;;;;5017793;28;20021;-86
2021/10/24 09:43:28;;;;;;;7.10;3.75;;;13.40;99.90;;;;;;5017574;28;20041;-86
2021/10/24 09:45:57;;;;;;;8.85;3.60;;;13.60;99.90;;;;;;5017377;28;20056;-88
2021/10/24 09:48:28;;;;;;;23.85;8.05;;;13.60;99.90;;;;;;5016660;28;20049;-87
2021/10/24 09:51:00;;;;;;;6.78;3.60;;;13.70;99.90;;;;;;5016728;28;20576;-87
2021/10/24 09:53:29;;;;;;;16.63;7.20;;;13.90;99.90;;;;;;5017096;28;20048;-87
2021/10/24 09:55:55;;;;;;;10.52;4.65;;;14.20;99.90;;;;;;5040410;28;20131;-87
2021/10/24 09:58:41;;;;;;;10.88;3.33;;;14.50;99.90;;;;;;5058023;28;20542;-87
2021/10/24 10:01:09;;;;;;;5.00;2.92;;;14.50;99.90;;;;;;5057833;28;20086;-87
2021/10/24 10:03:36;;;;;;;7.07;3.00;;;14.50;99.90;;;;;;5057981;28;20033;-86
2021/10/24 10:06:03;;;;;;;11.80;3.08;;;14.60;99.90;;;;;;5057969;28;20032;-86
2021/10/24 10:08:29;;;;;;;5.78;3.15;;;14.80;99.90;;;;;;5058828;28;20028;-86
2021/10/24 10:11:06;;;;;;;9.55;3.25;;;15.00;99.90;;;;;;5057779;28;20480;-86
2021/10/24 10:13:37;;;;;;;6.22;3.13;;;14.70;99.90;;;;;;5058154;28;20442;-86
2021/10/24 10:16:08;;;;;;;6.43;2.65;;;14.30;99.90;;;;;;5056495;28;20028;-86
2021/10/24 10:18:56;;;;;;;7.03;3.15;;;14.70;99.90;;;;;;5041097;28;20079;-85
2021/10/24 10:21:31;;;;;;;6.90;2.72;;;15.20;99.90;;;;;;5057187;28;20036;-86
2021/10/24 10:23:58;;;;;;;4.68;2.70;;;15.70;99.90;;;;;;5056963;28;20027;-86
2021/10/24 10:26:36;;;;;;;6.45;3.00;;;16.00;99.90;;;;;;5057251;28;20460;-89
2021/10/24 10:29:08;;;;;;;8.05;3.55;;;16.00;99.90;;;;;;5057516;28;20422;-86
2021/10/24 10:31:36;;;;;;;9.65;3.60;;;16.10;99.90;;;;;;5075860;28;20025;-87
2021/10/24 10:34:10;;;;;;;7.90;3.05;;;16.10;99.90;;;;;;5057617;28;20400;-86
2021/10/24 10:36:45;;;;;;;7.90;3.10;;;16.60;99.90;;;;;;5057609;28;20119;-86
2021/10/24 10:39:33;;;;;;;5.55;2.60;;;16.80;99.90;;;;;;5056954;28;20373;-86
2021/10/24 10:42:30;;;;;;;7.18;2.67;;;16.90;99.70;;;;;;5059097;28;20020;-87
2021/10/24 10:45:15;;;;;;;7.65;3.10;;;17.10;99.00;;;;;;5057313;28;20025;-87
2021/10/24 10:48:06;;;;;;;5.10;2.78;;;17.30;98.40;;;;;;5057144;28;20024;-86
2021/10/24 10:50:46;;;;;;;6.55;2.92;;;17.40;98.60;;;;;;5056981;28;20441;-86
2021/10/24 10:53:39;;;;;;;6.72;3.28;;;17.40;98.70;;;;;;5057168;28;20547;-85
2021/10/24 10:56:05;;;;;;;8.88;3.00;;;17.50;98.40;;;;;;5057021;28;20021;-86
2021/10/24 10:58:38;;;;;;;4.50;2.75;;;18.20;97.90;;;;;;5056728;28;20092;-86
2021/10/24 11:01:23;;;;;;;7.43;2.58;;;18.40;97.00;;;;;;5057116;28;20036;-85
2021/10/24 11:03:56;;;;;;;9.25;3.88;;;18.50;97.00;;;;;;5057325;28;20133;-85
2021/10/24 11:06:25;;;;;;;6.47;3.67;;;18.20;96.30;;;;;;5056663;28;20033;-86
2021/10/24 11:08:58;;;;;;;6.32;2.90;;;17.50;97.00;;;;;;5056855;28;20038;-86
2021/10/24 11:11:45;;;;;;;4.47;2.75;;;17.70;97.00;;;;;;5056118;28;20028;-85
2021/10/24 11:14:14;;;;;;;5.15;2.78;;;18.10;96.70;;;;;;5057630;28;20364;-87
2021/10/24 11:16:49;;;;;;;5.18;2.55;;;18.30;96.50;;;;;;5056887;28;20055;-86
2021/10/24 11:19:39;;;;;;;7.95;3.28;;;19.00;95.40;;;;;;5056598;28;20430;-86
2021/10/24 11:22:17;;;;;;;5.40;2.50;;;19.00;95.10;;;;;;5018900;28;20036;-86
2021/10/24 11:24:44;;;;;;;4.85;2.45;;;19.10;94.40;;;;;;5056558;28;20029;-86
2021/10/24 11:27:12;;;;;;;5.38;2.50;;;19.80;93.50;;;;;;5059041;28;20388;-83
2021/10/24 11:30:02;;;;;;;5.72;2.70;;;20.00;92.80;;;;;;5059846;28;20094;-85
2021/10/24 11:32:34;;;;;;;4.25;2.10;;;19.40;92.70;;;;;;5078600;28;20472;-84
2021/10/24 11:35:02;;;;;;;5.90;2.58;;;19.90;92.70;;;;;;5059557;28;20028;-85
2021/10/24 11:37:32;;;;;;;3.88;2.15;;;20.40;91.60;;;;;;5060362;28;20021;-86
2021/10/24 11:40:00;;;;;;;3.88;2.58;;;21.50;90.50;;;;;;5078688;28;20055;-86
2021/10/24 11:42:27;;;;;;;3.88;1.75;;;21.40;89.20;;;;;;5060606;28;20024;-86
2021/10/24 11:44:53;;;;;;;5.88;2.63;;;21.50;88.20;;;;;;5078589;28;20039;-86
2021/10/24 11:47:18;;;;;;;6.80;2.75;;;21.90;86.60;;;;;;5060235;28;20025;-86
2021/10/24 11:49:53;;;;;;;4.13;2.28;;;21.80;86.70;;;;;;5060213;28;20499;-86
2021/10/24 11:52:26;;;;;;;;;;;22.20;85.10;;;;;;5060611;28;20056;-86
2021/10/24 11:55:09;;;;;;;2.90;1.90;;;21.80;86.10;;;;;;5060303;28;19927;-86
2021/10/24 12:00:23;;;;;;;6.20;2.15;;;22.40;85.10;;;;;;5078134;28;20032;-86
2021/10/24 12:03:02;;;;;;;5.47;2.30;;;23.10;81.90;;;;;;5045905;28;20606;-86
2021/10/24 12:05:30;;;;;;;4.85;2.33;;;22.20;82.30;;;;;;5043707;28;20071;-86
2021/10/24 12:08:00;;;;;;;5.03;2.78;;;22.20;83.30;;;;;;5059326;28;20116;-86
2021/10/24 12:10:51;;;;;;;3.50;2.45;;;21.70;82.60;;;;;;5059104;28;20040;-86
2021/10/24 12:13:34;;;;;;;4.18;2.20;;;22.40;82.20;;;;;;5059747;28;20017;-86
2021/10/24 12:16:01;;;;;;;4.53;2.00;;;23.20;80.60;;;;;;5059646;28;20048;-86
2021/10/24 12:18:35;;;;;;;6.85;2.50;;;23.60;77.50;;;;;;5059198;28;20078;-85
2021/10/24 12:21:04;;;;;;;3.93;1.87;;;23.70;77.20;;;;;;5058783;28;20020;-86
2021/10/24 12:23:34;;;;;;;4.88;1.98;;;24.20;76.10;;;;;;5077798;28;20544;-86
2021/10/24 12:26:02;;;;;;;4.38;1.90;;;24.40;74.90;;;;;;5060067;28;20116;-86
2021/10/24 12:28:36;;;;;;;4.53;2.55;;;24.30;74.10;;;;;;5059254;28;20028;-86
2021/10/24 12:31:05;;;;;;;5.57;2.33;;;23.80;74.10;;;;;;5059086;28;20047;-86
2021/10/24 12:33:42;;;;;;;5.20;2.50;;;23.70;75.10;;;;;;5059330;28;20112;-86
2021/10/24 12:36:13;;;;;;;4.55;2.17;;;23.80;74.60;;;;;;5077032;28;20492;-87
2021/10/24 12:38:59;;;;;;;4.30;2.10;;;24.90;72.70;;;;;;5057906;28;20020;-87
2021/10/24 12:41:45;;;;;;;6.47;2.53;;;25.40;71.80;;;;;;5059249;28;20028;-87
2021/10/24 12:44:15;;;;;;;5.93;2.40;;;24.10;71.60;;;;;;5076827;28;20056;-87
2021/10/24 12:46:41;;;;;;;5.43;1.88;;;24.60;71.00;;;;;;5058678;28;20547;-86
2021/10/24 12:49:12;;;;;;;4.55;2.10;;;24.50;71.90;;;;;;5058441;28;20169;-86
2021/10/24 12:51:40;;;;;;;5.78;2.45;;;24.40;71.70;;;;;;5059826;28;20028;-86
2021/10/24 12:54:10;;;;;;;4.93;2.30;;;23.40;73.60;;;;;;5059717;28;20484;-85
2021/10/24 12:56:38;;;;;;;4.30;2.42;;;24.30;72.80;;;;;;5058523;28;20031;-85
2021/10/24 12:59:04;;;;;;;5.30;2.10;;;24.00;71.70;;;;;;5058712;28;20437;-85
2021/10/24 13:01:36;;;;;;;3.63;2.40;;;24.50;71.90;;;;;;5077013;28;20468;-86
2021/10/24 13:04:04;;;;;;;4.43;2.33;;;23.80;71.60;;;;;;5058815;28;20059;-86